Time;durP1;ratioP1;P1;durP2;ratioP2;P2;SDS_P1;SDS_P2;PMS_P1;PMS_P2;Temp;Humidity;BMP_temperature;BMP_pressure;BME280_temperature;BME280_humidity;BME280_pressure;Samples;Min_cycle;Max_cycle;Signal;HPM_P1;HPM_P2
2022/06/03 07:28:02;;;;;;;4.80;2.50;;;;;;;41.31;43.25;101251.44;1832942;77;22936;-87
2022/06/03 07:30:40;;;;;;;5.35;2.58;;;;;;;41.59;42.00;101256.55;1827459;77;21010;-87
2022/06/03 07:33:32;;;;;;;5.00;2.22;;;;;;;41.82;40.18;101258.92;1814352;77;21275;-88
2022/06/03 07:36:21;;;;;;;7.92;2.80;;;;;;;41.91;40.34;101260.43;1806482;78;21595;-88
2022/06/03 07:39:01;;;;;;;7.70;3.12;;;;;;;41.87;37.31;101262.59;1827430;77;21488;-86
2022/06/03 07:41:51;;;;;;;6.22;2.62;;;;;;;41.19;36.33;101262.80;1821082;77;20976;-87
2022/06/03 07:44:24;;;;;;;13.90;3.20;;;;;;;41.25;36.73;101267.41;1817372;77;20967;-86
2022/06/03 07:47:04;;;;;;;4.58;2.55;;;;;;;41.30;36.60;101267.47;1829386;77;21922;-86
2022/06/03 07:49:34;;;;;;;5.47;2.70;;;;;;;41.38;36.12;101258.09;1799458;78;21043;-86
2022/06/03 07:52:21;;;;;;;6.15;3.00;;;;;;;41.53;37.60;101264.24;1823168;78;20956;-87
2022/06/03 07:54:58;;;;;;;12.25;4.12;;;;;;;41.67;35.96;101264.96;1768647;80;21503;-86
2022/06/03 07:57:29;;;;;;;14.07;4.17;;;;;;;41.94;35.64;101265.80;1718261;80;21235;-86
2022/06/03 07:59:59;;;;;;;13.65;3.55;;;;;;;41.96;34.17;101270.38;1689527;83;22008;-87
2022/06/03 08:02:26;;;;;;;6.22;3.02;;;;;;;42.15;33.77;101269.25;1711441;82;21097;-88
2022/06/03 08:05:15;;;;;;;9.38;4.08;;;;;;;42.06;33.04;101272.00;1714392;82;21074;-87
2022/06/03 08:13:19;;;;;;;9.60;3.50;;;;;;;40.98;33.12;101265.70;1656827;84;21086;-87
2022/06/03 08:15:57;;;;;;;7.40;3.08;;;;;;;40.45;32.75;101269.59;1657370;84;21112;-87
2022/06/03 08:18:27;;;;;;;4.95;3.35;;;;;;;40.22;35.06;101262.24;1580185;90;21045;-86
2022/06/03 08:20:59;;;;;;;7.83;3.42;;;;;;;40.64;34.75;101266.58;1583373;90;21044;-87
2022/06/03 08:23:30;;;;;;;10.32;3.70;;;;;;;40.70;32.71;101273.87;1581806;89;22310;-86
2022/06/03 08:25:59;;;;;;;6.87;3.33;;;;;;;40.38;33.12;101278.45;1578022;90;21180;-86
2022/06/03 08:28:30;;;;;;;7.05;3.58;;;;;;;40.55;34.72;101274.13;1582855;90;21579;-86
2022/06/03 08:30:58;;;;;;;10.03;3.40;;;;;;;40.96;34.21;101273.22;1583416;89;21052;-87
2022/06/03 08:33:47;;;;;;;9.48;3.62;;;;;;;41.31;33.22;101269.04;1546828;91;21154;-86
2022/06/03 08:36:20;;;;;;;9.88;3.25;;;;;;;41.27;32.82;101269.17;1558608;91;21102;-86
2022/06/03 08:38:57;;;;;;;7.50;3.08;;;;;;;41.26;32.93;101273.86;1572466;90;21173;-86
2022/06/03 08:42:10;;;;;;;7.15;2.77;;;;;;;40.79;32.37;101275.38;1546740;92;21262;-87
2022/06/03 08:45:08;;;;;;;12.70;3.17;;;;;;;40.30;33.54;101257.34;1538397;91;21240;-86
2022/06/03 08:47:44;;;;;;;10.23;3.80;;;;;;;40.60;32.75;101263.05;1554115;91;23103;-86
2022/06/03 08:50:34;;;;;;;5.33;2.62;;;;;;;40.68;33.76;101278.39;1549927;91;21039;-87
2022/06/03 08:53:12;;;;;;;9.03;2.62;;;;;;;40.68;33.07;101288.28;1542210;91;21318;-85
2022/06/03 08:55:51;;;;;;;8.40;2.40;;;;;;;40.55;34.22;101287.63;1535906;91;21109;-87
2022/06/03 08:58:58;;;;;;;7.90;2.80;;;;;;;40.66;32.85;101279.48;1529048;93;21596;-88
2022/06/03 09:01:33;;;;;;;6.87;2.95;;;;;;;40.23;32.83;101287.83;1608096;88;21058;-86
2022/06/03 09:04:22;;;;;;;14.58;3.08;;;;;;;39.82;33.65;101286.56;1548971;91;21658;-87
2022/06/03 09:07:11;;;;;;;6.42;2.40;;;;;;;39.95;34.01;101290.23;1548052;91;21057;-86
2022/06/03 09:09:51;;;;;;;7.28;2.40;;;;;;;39.48;33.94;101298.53;1549174;91;21669;-86
2022/06/03 09:12:34;;;;;;;7.95;2.52;;;;;;;38.55;35.76;101303.55;1548680;91;21047;-85
2022/06/03 09:15:10;;;;;;;8.48;2.70;;;;;;;38.23;36.15;101306.24;1547266;91;21110;-85
2022/06/03 09:17:56;;;;;;;6.12;2.40;;;;;;;38.34;36.99;101306.81;1546393;92;21122;-86
2022/06/03 09:20:33;;;;;;;10.23;2.60;;;;;;;38.62;36.56;101308.22;1578229;90;21106;-86
2022/06/03 09:23:07;;;;;;;9.78;2.60;;;;;;;38.77;35.89;101312.91;1554620;90;21112;-85
2022/06/03 09:25:38;;;;;;;6.25;2.80;;;;;;;38.69;36.82;101313.71;1554867;91;21524;-85
2022/06/03 09:28:07;;;;;;;3.95;1.98;;;;;;;39.17;37.02;101317.03;1550809;91;21077;-86
2022/06/03 09:30:39;;;;;;;8.00;2.20;;;;;;;39.62;36.10;101314.27;1553774;91;21113;-85
2022/06/03 09:33:11;;;;;;;6.37;2.47;;;;;;;39.49;36.20;101316.25;1553556;92;21970;-85
2022/06/03 09:35:41;;;;;;;5.33;2.30;;;;;;;39.03;35.50;101321.81;1613362;84;21046;-87
2022/06/03 09:38:09;;;;;;;7.92;2.50;;;;;;;38.75;36.40;101328.08;1676258;83;21025;-84
2022/06/03 09:40:42;;;;;;;11.73;2.52;;;;;;;38.54;36.91;101331.55;1693871;82;21174;-85
2022/06/03 09:43:22;;;;;;;5.55;2.60;;;;;;;38.62;37.55;101330.77;1708767;83;21028;-85
2022/06/03 09:45:54;;;;;;;10.53;3.00;;;;;;;38.53;37.52;101336.98;1705043;82;21134;-86
2022/06/03 09:48:26;;;;;;;9.83;2.77;;;;;;;38.53;37.39;101336.20;1673724;83;21022;-86
2022/06/03 09:50:56;;;;;;;6.83;2.20;;;;;;;38.30;37.85;101341.28;1694467;83;21040;-87
2022/06/03 09:53:30;;;;;;;9.55;2.50;;;;;;;37.95;38.70;101339.38;1708728;82;21044;-86
2022/06/03 09:56:01;;;;;;;10.43;2.37;;;;;;;37.47;38.83;101330.15;1682224;82;21041;-86
2022/06/03 09:58:33;;;;;;;8.43;2.50;;;;;;;37.15;39.32;101341.92;1677153;83;21165;-87
2022/06/03 10:01:03;;;;;;;8.27;2.13;;;;;;;36.58;40.37;101335.08;1677639;83;21045;-87
2022/06/03 10:03:30;;;;;;;11.88;2.40;;;;;;;36.60;40.46;101339.67;1684514;82;21078;-87
2022/06/03 10:05:58;;;;;;;11.73;2.80;;;;;;;36.87;39.88;101337.48;1691444;82;21024;-88
2022/06/03 10:12:48;;;;;;;8.08;2.50;;;;;;;36.74;39.21;101337.87;1818278;77;21023;-87
2022/06/03 10:13:42;;;;;;;8.33;2.20;;;;;;;36.27;40.22;101328.64;1820823;77;21003;-87
2022/06/03 10:16:12;;;;;;;6.58;2.30;;;;;;;36.15;40.33;101316.53;1822092;77;21012;-86
2022/06/03 10:18:49;;;;;;;6.70;2.10;;;;;;;36.11;40.66;101312.98;1826978;77;21036;-87
2022/06/03 10:21:20;;;;;;;6.03;2.40;;;;;;;35.71;40.30;101312.59;1813480;77;20984;-87
2022/06/03 10:23:55;;;;;;;4.43;2.00;;;;;;;35.36;41.34;101313.70;1828403;77;21871;-87
2022/06/03 10:26:29;;;;;;;11.35;2.47;;;;;;;35.42;42.31;101311.43;1828359;77;20953;-87
2022/06/03 10:29:00;;;;;;;7.25;2.50;;;;;;;35.38;42.21;101305.65;1839797;78;22327;-88
2022/06/03 10:31:31;;;;;;;10.08;2.55;;;;;;;34.68;42.42;101314.94;1812176;77;20973;-87
2022/06/03 10:34:01;;;;;;;15.88;2.67;;;;;;;34.40;43.62;101309.44;1832743;77;21495;-86
2022/06/03 10:36:39;;;;;;;10.25;2.52;;;;;;;34.35;43.23;101319.84;1820370;77;21154;-87
2022/06/03 10:39:09;;;;;;;13.90;2.10;;;;;;;34.25;43.14;101308.70;1829019;77;21011;-87
2022/06/03 10:41:48;;;;;;;7.08;2.72;;;;;;;34.27;43.09;101307.09;1818475;77;21185;-89
2022/06/03 10:44:27;;;;;;;6.58;2.12;;;;;;;34.17;44.56;101302.94;1750307;80;21013;-87
2022/06/03 10:47:16;;;;;;;15.20;2.58;;;;;;;33.89;43.30;101305.99;1760943;80;21083;-87
2022/06/03 10:50:01;;;;;;;7.92;2.30;;;;;;;33.59;44.12;101310.04;1761310;80;21109;-87
2022/06/03 11:01:32;;;;;;;9.25;2.25;;;;;;;33.96;44.27;101305.17;1760363;80;21442;-88
2022/06/03 11:03:59;;;;;;;8.48;2.47;;;;;;;33.67;44.63;101302.42;1767020;80;21108;-86
2022/06/03 11:06:33;;;;;;;6.20;2.22;;;;;;;33.15;45.18;101291.66;1762981;80;21043;-86
2022/06/03 11:09:02;;;;;;;11.65;2.10;;;;;;;33.02;46.79;101295.41;1689269;83;21119;-86
2022/06/03 11:11:43;;;;;;;10.50;2.58;;;;;;;33.24;46.44;101290.66;1691087;83;21012;-85
2022/06/03 11:14:41;;;;;;;8.90;2.40;;;;;;;33.30;46.57;101298.04;1641874;86;21083;-86
2022/06/03 11:17:21;;;;;;;7.10;2.35;;;;;;;33.07;46.67;101291.44;1656083;85;21145;-88
